Time;durP1;ratioP1;P1;durP2;ratioP2;P2;SDS_P1;SDS_P2;PMS_P1;PMS_P2;Temp;Humidity;BMP_temperature;BMP_pressure;BME280_temperature;BME280_humidity;BME280_pressure;Samples;Min_cycle;Max_cycle;Signal;HPM_P1;HPM_P2
2022/08/02 00:00:22;;;;;;;4.00;2.78;;;;;;;24.15;43.20;101977.00;5055747;28;20567;-65
2022/08/02 00:02:48;;;;;;;3.50;2.30;;;;;;;24.20;42.96;101976.47;5064916;28;20620;-65
2022/08/02 00:05:14;;;;;;;5.05;2.60;;;;;;;24.14;42.99;101974.53;5058793;28;20060;-65
2022/08/02 00:07:40;;;;;;;3.10;2.47;;;;;;;24.19;43.04;101969.47;5052422;28;20028;-65
2022/08/02 00:10:07;;;;;;;4.20;2.60;;;;;;;24.15;43.22;101971.69;5065776;28;20444;-65
2022/08/02 00:12:32;;;;;;;3.17;2.38;;;;;;;24.22;43.14;101966.44;5064152;28;20123;-64
2022/08/02 00:14:58;;;;;;;3.85;2.60;;;;;;;24.19;43.08;101970.31;5059125;28;20946;-65
2022/08/02 00:17:23;;;;;;;5.55;2.83;;;;;;;24.18;43.11;101963.34;5065766;28;20059;-65
2022/08/02 00:19:49;;;;;;;3.45;2.55;;;;;;;24.16;43.25;101961.88;5070724;28;20562;-65
2022/08/02 00:22:14;;;;;;;5.20;3.03;;;;;;;24.21;43.10;101962.13;5055535;28;20040;-65
2022/08/02 00:24:40;;;;;;;3.33;2.58;;;;;;;24.24;43.05;101969.78;5063327;28;20032;-64
2022/08/02 00:27:07;;;;;;;3.22;2.35;;;;;;;24.23;43.14;101974.25;5045785;28;20585;-65
2022/08/02 00:29:34;;;;;;;3.53;2.28;;;;;;;24.24;43.07;101972.44;5068335;28;20059;-65
2022/08/02 00:31:59;;;;;;;3.45;2.40;;;;;;;24.17;43.34;101960.84;5061322;28;20051;-65
2022/08/02 00:34:25;;;;;;;3.53;2.78;;;;;;;24.20;43.18;101968.47;5064310;28;20033;-65
2022/08/02 00:36:50;;;;;;;2.80;2.50;;;;;;;24.24;43.16;101973.28;5045836;28;20047;-65
2022/08/02 00:39:16;;;;;;;3.25;2.40;;;;;;;24.24;43.22;101977.78;5067293;28;20105;-65
2022/08/02 00:41:47;;;;;;;4.05;2.40;;;;;;;24.22;42.93;101966.44;5042672;28;20033;-64
2022/08/02 00:44:14;;;;;;;3.38;2.30;;;;;;;24.25;43.16;101974.09;5043105;28;20067;-65
2022/08/02 00:46:40;;;;;;;5.28;2.88;;;;;;;24.20;43.23;101974.63;5052709;28;20198;-64
2022/08/02 00:49:06;;;;;;;3.80;2.60;;;;;;;24.17;43.27;101979.47;5048024;28;20567;-64
2022/08/02 00:51:31;;;;;;;4.43;2.50;;;;;;;24.26;43.27;101973.91;5058174;28;20071;-64
2022/08/02 00:53:57;;;;;;;3.97;2.67;;;;;;;24.21;43.25;101962.13;5067299;28;20044;-64
2022/08/02 00:56:22;;;;;;;2.88;2.25;;;;;;;24.22;43.16;101959.28;5066655;28;20040;-64
2022/08/02 00:58:48;;;;;;;3.30;2.53;;;;;;;24.25;43.13;101964.28;5059466;28;20679;-64
2022/08/02 01:01:14;;;;;;;3.45;2.20;;;;;;;24.25;43.23;101966.13;5060546;28;20069;-64
2022/08/02 01:03:40;;;;;;;3.25;2.33;;;;;;;24.21;43.21;101964.81;5062367;28;20072;-64
2022/08/02 01:06:06;;;;;;;4.50;2.42;;;;;;;24.21;43.37;101954.97;5060318;28;20059;-64
2022/08/02 01:08:32;;;;;;;4.72;2.38;;;;;;;24.27;43.22;101956.94;5071932;28;20036;-64
2022/08/02 01:10:57;;;;;;;3.92;2.40;;;;;;;24.31;42.85;101952.94;5063399;28;20048;-64
2022/08/02 01:13:26;;;;;;;4.68;2.72;;;;;;;24.29;43.24;101956.78;5062296;28;20036;-64
2022/08/02 01:16:06;;;;;;;3.47;2.60;;;;;;;24.32;43.15;101951.91;5059960;28;20800;-64
2022/08/02 01:18:40;;;;;;;2.45;2.25;;;;;;;24.24;43.33;101956.47;5059289;28;20044;-63
2022/08/02 01:21:34;;;;;;;3.45;2.40;;;;;;;24.22;43.15;101950.47;5056038;28;20044;-64
2022/08/02 01:24:35;;;;;;;4.10;2.60;;;;;;;24.31;43.23;101954.75;5057733;28;20044;-64
2022/08/02 01:27:19;;;;;;;3.40;2.38;;;;;;;24.26;43.15;101951.78;5012850;28;20040;-64
2022/08/02 01:29:52;;;;;;;2.78;2.33;;;;;;;24.23;43.20;101941.50;5075486;28;20541;-64
2022/08/02 01:32:24;;;;;;;4.00;2.63;;;;;;;24.19;43.40;101942.88;5066001;28;20063;-64
2022/08/02 01:34:58;;;;;;;3.50;2.67;;;;;;;24.25;43.23;101936.84;5067227;28;20089;-63
2022/08/02 01:37:31;;;;;;;3.70;2.50;;;;;;;24.24;43.19;101941.34;5069271;28;20382;-64
2022/08/02 01:40:03;;;;;;;3.97;2.78;;;;;;;24.25;43.21;101937.66;5063443;28;20267;-63
2022/08/02 01:42:31;;;;;;;2.28;2.08;;;;;;;24.28;43.20;101933.81;5066924;28;20052;-64
2022/08/02 01:44:59;;;;;;;3.47;2.80;;;;;;;24.22;43.34;101930.00;5074476;28;20036;-64
2022/08/02 01:47:32;;;;;;;5.45;2.60;;;;;;;24.29;43.30;101935.50;5060357;28;20144;-63
2022/08/02 01:50:00;;;;;;;3.65;2.30;;;;;;;24.28;43.39;101934.63;5063662;28;20173;-63
2022/08/02 01:52:29;;;;;;;4.75;2.47;;;;;;;24.31;43.21;101934.28;5068765;28;20035;-63
2022/08/02 01:55:06;;;;;;;3.83;2.88;;;;;;;24.26;43.35;101928.66;5062471;28;20075;-64
2022/08/02 01:57:37;;;;;;;4.38;2.35;;;;;;;24.32;43.22;101925.28;5055375;28;20040;-64
2022/08/02 02:00:06;;;;;;;3.20;2.67;;;;;;;24.27;43.32;101925.00;5065998;28;20040;-64
2022/08/02 02:02:35;;;;;;;3.45;2.10;;;;;;;24.23;43.38;101923.69;5054631;28;20049;-63
2022/08/02 02:05:01;;;;;;;2.33;2.05;;;;;;;24.24;43.45;101920.03;5057142;28;20075;-64
2022/08/02 02:07:29;;;;;;;2.50;2.28;;;;;;;24.28;43.10;101920.50;5058383;28;20079;-64
2022/08/02 02:09:57;;;;;;;3.35;2.42;;;;;;;24.29;43.59;101925.66;5056021;28;20043;-63
2022/08/02 02:12:23;;;;;;;2.78;2.30;;;;;;;24.32;43.23;101924.47;5062837;28;20566;-64
2022/08/02 02:14:50;;;;;;;4.78;2.20;;;;;;;24.21;43.39;101916.88;5062169;28;20544;-63
2022/08/02 02:17:18;;;;;;;3.45;2.20;;;;;;;24.21;43.49;101920.38;5068570;28;20024;-64
2022/08/02 02:19:45;;;;;;;3.22;2.47;;;;;;;24.27;43.28;101914.34;5065233;28;20032;-63
2022/08/02 02:22:11;;;;;;;2.72;2.30;;;;;;;24.23;43.34;101913.03;5069829;28;20573;-63
2022/08/02 02:24:37;;;;;;;3.05;2.28;;;;;;;24.30;43.19;101907.84;5060603;28;20067;-63
2022/08/02 02:27:06;;;;;;;3.40;2.22;;;;;;;24.30;43.16;101907.84;5065059;28;20568;-63
2022/08/02 02:29:33;;;;;;;3.08;2.30;;;;;;;24.23;43.39;101899.72;5072124;28;20044;-63
2022/08/02 02:32:00;;;;;;;2.72;2.40;;;;;;;24.29;43.32;101887.56;5063761;28;20050;-63
2022/08/02 02:34:36;;;;;;;2.95;2.03;;;;;;;24.28;43.45;101885.91;5060140;28;20044;-63
2022/08/02 02:37:04;;;;;;;2.50;2.30;;;;;;;24.23;43.42;101873.13;5071477;28;20109;-63
2022/08/02 02:39:32;;;;;;;3.00;2.30;;;;;;;24.25;43.26;101873.78;5062152;28;20036;-63
2022/08/02 02:42:02;;;;;;;2.30;2.10;;;;;;;24.27;43.41;101873.59;5059547;28;20059;-63
2022/08/02 02:44:28;;;;;;;;;;;;;;;24.27;43.50;101870.94;5072170;28;20043;-63
2022/08/02 02:46:54;;;;;;;2.97;2.15;;;;;;;24.22;43.54;101871.47;5062829;28;19920;-63
2022/08/02 02:49:21;;;;;;;2.83;2.47;;;;;;;24.25;43.30;101875.63;5061253;28;20110;-63
2022/08/02 02:51:48;;;;;;;3.63;2.25;;;;;;;24.28;43.25;101876.06;5065019;28;20040;-64
2022/08/02 02:54:15;;;;;;;2.50;2.17;;;;;;;24.24;43.42;101861.50;5062518;28;20044;-63
2022/08/02 02:56:43;;;;;;;3.35;2.10;;;;;;;24.20;43.47;101854.84;5062904;28;20061;-63
2022/08/02 02:59:09;;;;;;;3.03;2.30;;;;;;;24.19;43.34;101857.69;5055141;28;20048;-63
2022/08/02 03:01:35;;;;;;;2.20;2.00;;;;;;;24.22;43.44;101857.34;5064717;28;20131;-63
2022/08/02 03:04:06;;;;;;;4.03;2.30;;;;;;;24.16;43.54;101861.56;5064245;28;20156;-64
2022/08/02 03:06:32;;;;;;;2.50;2.30;;;;;;;24.23;43.46;101862.47;5065734;28;20060;-64
2022/08/02 03:08:59;;;;;;;3.15;2.53;;;;;;;24.11;43.54;101854.13;5070870;28;20044;-63
2022/08/02 03:11:28;;;;;;;4.13;2.25;;;;;;;24.18;43.53;101861.38;5063089;28;20044;-63
2022/08/02 03:14:02;;;;;;;4.07;2.53;;;;;;;24.23;43.57;101861.63;5059986;28;20478;-64
2022/08/02 03:16:29;;;;;;;3.53;2.28;;;;;;;24.22;43.45;101860.00;5065167;28;20033;-64
2022/08/02 03:18:56;;;;;;;2.92;2.30;;;;;;;24.19;43.39;101857.69;5065953;28;20129;-64
2022/08/02 03:21:21;;;;;;;3.47;2.30;;;;;;;24.20;43.60;101846.03;5061100;28;20474;-63
2022/08/02 03:23:48;;;;;;;3.28;2.30;;;;;;;24.25;43.57;101857.81;5063466;28;20044;-64
2022/08/02 03:26:14;;;;;;;3.38;2.30;;;;;;;24.25;43.34;101855.16;5061057;28;20024;-64
2022/08/02 03:28:40;;;;;;;2.25;2.05;;;;;;;24.26;43.42;101846.16;5061665;28;20514;-63
2022/08/02 03:31:06;;;;;;;3.28;2.30;;;;;;;24.20;43.55;101851.38;5065707;28;20036;-63
2022/08/02 03:33:32;;;;;;;2.58;2.20;;;;;;;24.20;43.36;101848.72;5060550;28;20077;-64
2022/08/02 03:36:05;;;;;;;4.22;2.40;;;;;;;24.20;43.55;101844.22;5066046;28;20401;-64
2022/08/02 03:38:32;;;;;;;2.45;2.10;;;;;;;24.16;43.52;101837.63;5064038;28;20032;-64
2022/08/02 03:41:01;;;;;;;4.05;2.47;;;;;;;24.21;43.47;101837.88;5045812;28;20452;-64
2022/08/02 03:43:27;;;;;;;2.72;2.05;;;;;;;24.13;43.36;101822.03;5064941;28;20035;-64
2022/08/02 03:45:54;;;;;;;3.83;2.08;;;;;;;24.13;43.62;101824.69;5067643;28;20040;-64
2022/08/02 03:48:20;;;;;;;2.20;2.00;;;;;;;24.21;43.45;101827.22;5063338;28;20043;-64
2022/08/02 03:50:49;;;;;;;3.75;2.30;;;;;;;24.14;43.69;101828.16;5080275;28;20033;-64
2022/08/02 03:53:16;;;;;;;2.30;2.08;;;;;;;24.09;43.78;101834.03;5064830;28;20044;-64
2022/08/02 03:55:42;;;;;;;2.45;2.20;;;;;;;24.14;43.69;101836.16;5066744;28;20047;-64
2022/08/02 03:58:08;;;;;;;4.20;2.88;;;;;;;24.10;43.51;101822.38;5057150;28;20143;-64
2022/08/02 04:00:33;;;;;;;2.30;2.10;;;;;;;24.13;43.63;101830.00;5060445;28;20048;-64
2022/08/02 04:02:59;;;;;;;2.13;1.92;;;;;;;24.17;43.45;101825.13;5070705;28;20093;-64
2022/08/02 04:05:25;;;;;;;3.47;2.35;;;;;;;24.18;43.66;101824.13;5062594;28;20475;-64
2022/08/02 04:07:51;;;;;;;2.60;2.00;;;;;;;24.17;43.55;101825.94;5044341;28;20580;-64
2022/08/02 04:10:17;;;;;;;2.67;2.20;;;;;;;24.17;43.70;101830.44;5064735;28;20048;-64
2022/08/02 04:12:42;;;;;;;2.60;2.10;;;;;;;24.17;43.58;101827.78;5064830;28;20044;-64
2022/08/02 04:15:11;;;;;;;3.40;2.33;;;;;;;24.16;43.53;101823.47;5059332;28;20044;-64
2022/08/02 04:17:44;;;;;;;3.38;2.40;;;;;;;24.08;43.69;101816.44;5063196;28;20040;-64
2022/08/02 04:20:20;;;;;;;2.38;2.10;;;;;;;24.13;43.79;101819.34;5051381;28;20044;-64
2022/08/02 04:22:59;;;;;;;2.50;2.30;;;;;;;24.17;43.40;101814.47;5061339;28;20050;-64
2022/08/02 04:25:26;;;;;;;2.88;2.47;;;;;;;24.08;43.79;101806.63;5061557;28;20040;-64
2022/08/02 04:27:52;;;;;;;3.45;1.90;;;;;;;24.14;43.59;101817.53;5055471;28;20035;-64
2022/08/02 04:30:19;;;;;;;2.40;2.10;;;;;;;24.15;43.53;101816.50;5065533;28;20117;-64
2022/08/02 04:32:45;;;;;;;2.67;2.47;;;;;;;24.13;43.67;101814.03;5045057;28;20040;-64
2022/08/02 04:35:11;;;;;;;2.97;2.30;;;;;;;24.14;43.35;101810.38;5058884;28;20099;-63
2022/08/02 04:37:37;;;;;;;3.13;2.42;;;;;;;24.13;43.59;101814.03;5044946;28;20032;-63
2022/08/02 04:40:07;;;;;;;2.40;2.20;;;;;;;24.15;43.57;101824.50;5061142;28;20162;-63
2022/08/02 04:42:33;;;;;;;3.42;2.13;;;;;;;24.15;43.55;101821.81;5064692;28;20048;-63
2022/08/02 04:44:58;;;;;;;2.20;2.00;;;;;;;24.08;43.76;101819.09;5067002;28;20440;-64
2022/08/02 04:47:24;;;;;;;3.10;2.22;;;;;;;24.16;43.67;101826.97;5060030;28;20044;-64
2022/08/02 04:49:50;;;;;;;2.60;2.40;;;;;;;24.06;43.77;101821.94;5063505;28;20051;-63
2022/08/02 04:52:15;;;;;;;3.33;2.25;;;;;;;24.10;43.72;101822.38;5062929;28;20041;-64
2022/08/02 04:54:41;;;;;;;3.28;2.47;;;;;;;24.09;43.97;101812.75;5058229;28;20047;-63
2022/08/02 04:57:53;;;;;;;2.97;2.22;;;;;;;24.09;43.69;101813.59;5059092;28;20106;-64
2022/08/02 04:59:51;;;;;;;3.40;2.17;;;;;;;24.20;43.48;101800.81;5056653;28;20109;-64
2022/08/02 05:02:17;;;;;;;2.20;2.00;;;;;;;24.11;43.58;101802.75;5057406;28;20217;-64
2022/08/02 05:04:43;;;;;;;2.20;2.00;;;;;;;24.07;43.82;101799.63;5062360;28;21453;-63
2022/08/02 05:07:08;;;;;;;2.30;2.10;;;;;;;24.08;43.65;101798.63;5069611;28;20048;-63
2022/08/02 05:09:33;;;;;;;4.43;2.47;;;;;;;24.05;43.68;101804.28;5064620;28;20044;-63
2022/08/02 05:11:59;;;;;;;3.40;2.40;;;;;;;24.10;43.80;101801.09;5066383;28;20415;-63
2022/08/02 05:14:24;;;;;;;3.58;2.38;;;;;;;24.07;43.73;101796.16;5065555;28;20051;-63
2022/08/02 05:16:50;;;;;;;3.50;2.58;;;;;;;24.06;43.66;101813.97;5068379;28;20039;-63
2022/08/02 05:19:16;;;;;;;3.03;2.35;;;;;;;24.05;43.90;101819.44;5066980;28;20044;-64
2022/08/02 05:21:41;;;;;;;3.45;2.20;;;;;;;24.06;43.77;101800.66;5045960;28;20061;-63
2022/08/02 05:24:07;;;;;;;2.47;2.17;;;;;;;24.07;43.75;101810.28;5074507;28;20465;-63
2022/08/02 05:26:32;;;;;;;3.17;2.28;;;;;;;24.10;43.82;101809.09;5065885;28;20132;-63
2022/08/02 05:28:58;;;;;;;3.40;2.35;;;;;;;24.10;43.79;101815.22;5066025;28;20057;-63
2022/08/02 05:31:23;;;;;;;2.30;2.10;;;;;;;24.08;43.90;101811.09;5065793;28;20037;-63
2022/08/02 05:33:49;;;;;;;3.97;2.28;;;;;;;24.06;43.75;101799.81;5063386;28;20048;-64
2022/08/02 05:36:14;;;;;;;2.65;2.30;;;;;;;24.05;43.77;101804.28;5068703;28;20044;-63
2022/08/02 05:38:40;;;;;;;2.50;2.17;;;;;;;24.03;43.94;101792.19;5062331;28;20044;-63
2022/08/02 05:41:05;;;;;;;3.03;2.30;;;;;;;24.05;43.95;101791.00;5062405;28;20056;-64
2022/08/02 05:43:31;;;;;;;2.75;2.25;;;;;;;24.08;43.84;101787.97;5064019;28;20021;-63
2022/08/02 05:45:57;;;;;;;2.35;2.15;;;;;;;24.03;43.83;101794.84;5063779;28;20097;-63
2022/08/02 05:48:22;;;;;;;2.58;2.33;;;;;;;24.01;44.10;101800.34;5067796;28;20070;-64
2022/08/02 05:50:54;;;;;;;2.28;2.00;;;;;;;24.06;43.82;101795.31;5054853;28;20136;-63
2022/08/02 05:53:40;;;;;;;4.25;2.45;;;;;;;24.03;44.01;101793.00;5067233;28;20675;-64
2022/08/02 05:56:21;;;;;;;2.67;2.00;;;;;;;24.01;43.96;101805.69;5064169;28;20047;-63
2022/08/02 05:59:08;;;;;;;2.28;2.08;;;;;;;24.07;43.97;101820.09;5067601;28;20036;-63
2022/08/02 06:01:42;;;;;;;3.45;2.63;;;;;;;24.06;43.98;101810.47;5060269;28;20084;-63
2022/08/02 06:04:10;;;;;;;3.80;2.33;;;;;;;24.09;43.79;101810.91;5062085;28;20036;-63
2022/08/02 06:06:36;;;;;;;3.00;2.25;;;;;;;24.05;43.77;101809.63;5058395;28;20040;-64
2022/08/02 06:09:13;;;;;;;2.63;2.20;;;;;;;24.10;43.92;101803.75;5057654;28;20032;-63
2022/08/02 06:11:44;;;;;;;3.70;2.38;;;;;;;24.10;43.74;101806.44;5056917;28;20036;-63
2022/08/02 06:14:11;;;;;;;2.92;2.45;;;;;;;24.10;43.78;101809.09;5061694;28;20068;-63
2022/08/02 06:16:38;;;;;;;3.55;2.40;;;;;;;24.04;43.99;101802.66;5065642;28;20385;-63
2022/08/02 06:19:04;;;;;;;3.15;2.42;;;;;;;24.03;43.79;101798.34;5065873;28;20049;-64
2022/08/02 06:21:30;;;;;;;2.45;2.15;;;;;;;24.05;44.11;101798.16;5063006;28;20041;-63
2022/08/02 06:23:57;;;;;;;4.20;2.15;;;;;;;24.10;43.80;101796.59;5065239;28;20631;-62
2022/08/02 06:26:24;;;;;;;3.10;2.30;;;;;;;24.07;43.90;101791.66;5068821;28;20172;-63
2022/08/02 06:28:52;;;;;;;2.40;2.20;;;;;;;24.08;43.89;101795.97;5064719;28;20059;-63
2022/08/02 06:31:18;;;;;;;2.65;2.35;;;;;;;24.05;43.86;101798.16;5063633;28;20067;-63
2022/08/02 06:33:43;;;;;;;3.75;2.65;;;;;;;24.08;43.83;101790.66;5060209;28;20041;-62
2022/08/02 06:36:26;;;;;;;3.70;2.60;;;;;;;24.09;43.89;101796.78;5058667;28;20109;-63
2022/08/02 06:39:00;;;;;;;2.30;2.10;;;;;;;24.11;43.91;101778.81;5066890;28;20036;-63
2022/08/02 06:41:30;;;;;;;2.78;2.10;;;;;;;24.09;43.88;101788.81;5064316;28;20045;-63
2022/08/02 06:44:00;;;;;;;2.55;2.35;;;;;;;24.11;43.79;101789.44;5057903;28;20033;-63
2022/08/02 06:46:26;;;;;;;2.75;2.00;;;;;;;24.15;43.87;101789.91;5065893;28;20047;-63
2022/08/02 06:48:52;;;;;;;2.67;2.30;;;;;;;24.16;43.70;101778.25;5064339;28;20120;-63
2022/08/02 06:51:17;;;;;;;2.10;1.90;;;;;;;24.11;43.82;101787.59;5065015;28;20482;-63
2022/08/02 06:53:44;;;;;;;3.30;2.65;;;;;;;24.21;43.62;101783.81;5064953;28;20560;-63
2022/08/02 06:56:10;;;;;;;3.65;2.33;;;;;;;24.24;43.51;101778.16;5066908;28;20093;-64
2022/08/02 06:58:35;;;;;;;2.70;2.08;;;;;;;24.22;43.41;101782.81;5061740;28;20060;-63
2022/08/02 07:01:05;;;;;;;4.18;2.45;;;;;;;24.17;43.50;101779.88;5066102;28;20687;-64
2022/08/02 07:03:35;;;;;;;2.72;2.28;;;;;;;24.17;43.69;101780.72;5066736;28;20032;-64
2022/08/02 07:06:01;;;;;;;3.55;2.13;;;;;;;24.27;43.43;101783.94;5070129;28;20131;-64
2022/08/02 07:08:31;;;;;;;2.08;1.92;;;;;;;24.27;43.55;101777.78;5067045;28;20024;-64
2022/08/02 07:10:59;;;;;;;2.42;2.22;;;;;;;24.28;43.41;101763.47;5063759;28;20044;-64
2022/08/02 07:13:26;;;;;;;3.80;2.50;;;;;;;24.29;43.47;101767.78;5048067;28;20040;-64
2022/08/02 07:15:51;;;;;;;2.63;2.10;;;;;;;24.40;43.33;101759.31;5061403;28;20077;-63
2022/08/02 07:18:17;;;;;;;3.97;2.40;;;;;;;24.38;43.47;101759.50;5059278;28;20124;-65
2022/08/02 07:20:42;;;;;;;3.03;2.22;;;;;;;24.41;43.27;101753.78;5061178;28;20040;-65
2022/08/02 07:23:08;;;;;;;3.70;2.20;;;;;;;24.52;42.99;101754.31;5060593;28;20734;-65
2022/08/02 07:25:34;;;;;;;4.53;2.30;;;;;;;24.47;43.02;101756.75;5063701;28;20379;-65
2022/08/02 07:27:59;;;;;;;2.78;2.05;;;;;;;24.46;43.05;101758.56;5061630;28;20048;-65
2022/08/02 07:30:25;;;;;;;2.75;2.05;;;;;;;24.48;42.84;101756.53;5061496;28;20032;-65
2022/08/02 07:32:51;;;;;;;3.22;2.30;;;;;;;24.51;42.91;101758.00;5065580;28;20905;-65
2022/08/02 07:35:16;;;;;;;3.75;2.30;;;;;;;24.52;42.97;101757.00;5064494;28;20024;-64
2022/08/02 07:37:44;;;;;;;2.65;2.08;;;;;;;24.55;42.95;101756.59;5071682;28;20425;-64
2022/08/02 07:40:11;;;;;;;2.67;2.20;;;;;;;24.48;42.85;101751.22;5064910;28;20045;-64
2022/08/02 07:42:37;;;;;;;4.28;2.20;;;;;;;24.56;42.88;101745.75;5057909;28;21289;-64
2022/08/02 07:45:03;;;;;;;6.43;2.55;;;;;;;24.24;43.67;101740.91;5060437;28;20036;-63
2022/08/02 07:47:28;;;;;;;4.78;2.60;;;;;;;24.23;43.96;101732.06;5070028;28;20036;-64
2022/08/02 07:49:53;;;;;;;7.45;2.40;;;;;;;24.23;43.75;101733.88;5062568;28;20040;-64
2022/08/02 07:52:19;;;;;;;8.25;2.83;;;;;;;24.19;44.01;101736.09;5057378;28;22099;-64
2022/08/02 07:54:45;;;;;;;7.82;3.00;;;;;;;24.19;43.96;101725.47;5062982;28;20040;-64
2022/08/02 07:57:11;;;;;;;3.58;2.80;;;;;;;24.22;43.83;101721.59;5065312;28;20043;-64
2022/08/02 07:59:37;;;;;;;3.60;2.22;;;;;;;24.22;44.10;101717.09;5057483;28;20028;-63
2022/08/02 08:02:03;;;;;;;7.50;3.03;;;;;;;24.22;43.99;101713.63;5060878;28;20544;-64
2022/08/02 08:04:29;;;;;;;8.32;2.47;;;;;;;24.24;44.01;101711.63;5064837;28;20039;-64
2022/08/02 08:06:55;;;;;;;4.95;2.58;;;;;;;24.08;44.34;101716.16;5060728;28;20036;-66
2022/08/02 08:09:20;;;;;;;5.75;2.35;;;;;;;24.17;44.32;101727.50;5063195;28;20594;-63
2022/08/02 08:11:46;;;;;;;5.55;2.63;;;;;;;24.23;44.08;101726.72;5057558;28;20041;-65
2022/08/02 08:14:11;;;;;;;7.07;2.85;;;;;;;24.15;44.42;101728.69;5064518;28;20513;-65
2022/08/02 08:16:37;;;;;;;5.05;2.50;;;;;;;24.20;44.33;101734.28;5056876;28;20041;-65
2022/08/02 08:19:03;;;;;;;4.88;2.40;;;;;;;24.05;44.72;101731.63;5059848;28;20052;-65
2022/08/02 08:21:28;;;;;;;3.30;2.30;;;;;;;24.08;44.63;101732.09;5059201;28;20078;-65
2022/08/02 08:23:55;;;;;;;4.90;2.58;;;;;;;24.15;44.49;101720.72;5064357;28;20406;-65
2022/08/02 08:26:20;;;;;;;4.05;2.28;;;;;;;24.19;44.48;101706.00;5063633;28;20502;-65
2022/08/02 08:28:46;;;;;;;3.45;2.10;;;;;;;24.28;44.21;101710.22;5056309;28;20098;-66
2022/08/02 08:31:11;;;;;;;2.70;2.45;;;;;;;24.29;44.07;101699.41;5065084;28;20528;-65
2022/08/02 08:33:37;;;;;;;3.20;2.30;;;;;;;24.25;44.42;101695.47;5044081;28;20089;-65
2022/08/02 08:36:03;;;;;;;4.25;2.22;;;;;;;24.08;44.76;101683.38;5062639;28;20434;-65
2022/08/02 08:38:28;;;;;;;5.03;2.40;;;;;;;24.09;44.61;101685.88;5070525;28;20025;-65
2022/08/02 08:40:54;;;;;;;3.25;2.10;;;;;;;24.14;44.69;101687.94;5063902;28;20625;-65
2022/08/02 08:43:20;;;;;;;3.08;2.00;;;;;;;24.16;44.59;101680.59;5070052;28;20075;-65
2022/08/02 08:45:47;;;;;;;3.22;2.30;;;;;;;24.10;44.76;101676.88;5068408;28;20036;-65
2022/08/02 08:48:15;;;;;;;3.90;2.22;;;;;;;24.10;44.84;101684.84;5069370;28;20159;-65
2022/08/02 08:50:51;;;;;;;5.40;2.55;;;;;;;24.05;45.04;101695.19;5058436;28;20136;-65
2022/08/02 08:53:18;;;;;;;2.83;2.00;;;;;;;24.07;45.26;101692.38;5065860;28;20414;-65
2022/08/02 08:55:44;;;;;;;4.65;2.50;;;;;;;24.10;44.96;101694.66;5068724;28;20127;-65
2022/08/02 08:58:10;;;;;;;2.42;2.20;;;;;;;24.24;44.66;101696.47;5073537;28;20115;-65
2022/08/02 09:00:36;;;;;;;6.05;2.38;;;;;;;24.06;44.93;101694.22;5062486;28;20254;-65
2022/08/02 09:03:07;;;;;;;6.25;2.55;;;;;;;24.09;44.85;101696.50;5066934;28;20036;-65
2022/08/02 09:05:37;;;;;;;3.03;2.15;;;;;;;24.10;45.02;101695.50;5065412;28;20060;-65
2022/08/02 09:08:03;;;;;;;2.97;1.90;;;;;;;24.11;44.84;101685.66;5068320;28;20476;-65
2022/08/02 09:10:46;;;;;;;3.33;2.20;;;;;;;24.20;44.73;101687.19;5067914;28;20482;-65
2022/08/02 09:13:29;;;;;;;2.38;2.17;;;;;;;24.07;44.94;101682.56;5062398;28;20129;-63
2022/08/02 09:16:02;;;;;;;2.85;2.20;;;;;;;24.16;44.95;101669.97;5063699;28;20028;-65
2022/08/02 09:18:39;;;;;;;2.78;2.20;;;;;;;24.09;45.05;101674.41;5066889;28;20059;-65
2022/08/02 09:21:08;;;;;;;3.20;2.03;;;;;;;24.16;44.95;101666.47;5065032;28;20067;-65
2022/08/02 09:23:41;;;;;;;;;;;;;;;24.02;45.25;101668.16;5068528;28;20040;-65
2022/08/02 09:26:08;;;;;;;3.22;2.00;;;;;;;24.13;45.10;101665.00;5067461;28;19921;-65
2022/08/02 09:28:37;;;;;;;6.00;2.58;;;;;;;24.10;45.03;101671.53;5065069;28;20493;-65
2022/08/02 09:31:04;;;;;;;3.35;2.03;;;;;;;24.03;45.36;101665.31;5065871;28;20044;-65
2022/08/02 09:33:30;;;;;;;6.78;2.13;;;;;;;24.10;45.05;101658.25;5066039;28;20383;-65
2022/08/02 09:36:16;;;;;;;2.25;1.92;;;;;;;24.02;45.39;101670.81;5062814;28;20052;-65
2022/08/02 09:39:00;;;;;;;2.38;2.10;;;;;;;23.99;45.31;101661.38;5064466;28;20853;-65
2022/08/02 09:41:31;;;;;;;5.85;2.60;;;;;;;24.09;45.18;101656.59;5063540;28;20050;-65
2022/08/02 09:43:58;;;;;;;3.25;2.13;;;;;;;24.15;45.09;101657.66;5066410;28;20075;-65
2022/08/02 09:46:26;;;;;;;4.05;2.38;;;;;;;23.95;45.67;101659.28;5067026;28;20029;-65
2022/08/02 09:49:03;;;;;;;2.47;2.28;;;;;;;24.05;45.37;101651.81;5066693;28;20047;-65
2022/08/02 09:51:48;;;;;;;4.20;2.50;;;;;;;24.17;45.23;101663.63;5068612;28;20063;-65
2022/08/02 09:54:25;;;;;;;3.33;2.28;;;;;;;24.03;45.56;101662.63;5067352;28;20048;-65
2022/08/02 09:56:59;;;;;;;2.75;1.77;;;;;;;24.08;45.44;101648.81;5063557;28;20755;-65
2022/08/02 09:59:26;;;;;;;3.05;1.92;;;;;;;24.13;45.21;101659.69;5061446;28;20035;-65
2022/08/02 10:01:53;;;;;;;5.53;2.42;;;;;;;24.06;45.58;101653.50;5064826;28;20049;-65
2022/08/02 10:04:25;;;;;;;3.10;2.28;;;;;;;24.08;45.50;101646.97;5067397;28;20063;-65
2022/08/02 10:06:52;;;;;;;2.65;2.22;;;;;;;24.01;45.61;101648.72;5058809;28;20487;-65
2022/08/02 10:09:19;;;;;;;4.53;2.20;;;;;;;24.11;45.29;101651.91;5067678;28;20469;-65
2022/08/02 10:11:45;;;;;;;2.88;2.33;;;;;;;24.15;45.45;101656.84;5063605;28;20063;-65
2022/08/02 10:14:11;;;;;;;2.58;2.10;;;;;;;24.01;45.75;101647.88;5048316;28;20029;-63
2022/08/02 10:16:38;;;;;;;3.20;2.20;;;;;;;23.94;46.01;101645.16;5065324;28;20654;-65
2022/08/02 10:19:04;;;;;;;2.90;2.40;;;;;;;24.01;45.87;101639.91;5065754;28;20116;-63
2022/08/02 10:21:51;;;;;;;3.70;2.22;;;;;;;24.14;45.58;101645.38;5066280;28;20557;-63
2022/08/02 10:24:20;;;;;;;2.83;2.17;;;;;;;24.14;45.58;101636.56;5064351;28;20433;-65
2022/08/02 10:26:47;;;;;;;4.28;2.40;;;;;;;24.10;45.67;101636.94;5065897;28;20041;-64
2022/08/02 10:29:18;;;;;;;3.13;2.22;;;;;;;24.09;45.77;101637.13;5057839;28;20505;-65
2022/08/02 10:32:15;;;;;;;5.07;2.28;;;;;;;24.09;45.98;101627.31;5066058;28;20036;-65
2022/08/02 10:34:54;;;;;;;2.47;2.15;;;;;;;24.00;46.39;101625.78;5042300;28;20075;-65
2022/08/02 10:37:25;;;;;;;3.23;2.10;;;;;;;24.12;45.97;101623.47;5063091;28;20036;-65
2022/08/02 10:39:55;;;;;;;3.58;2.42;;;;;;;24.07;46.06;101623.22;5063025;28;20406;-65
2022/08/02 10:42:43;;;;;;;3.70;2.10;;;;;;;24.05;46.08;101623.38;5065728;28;20036;-65
2022/08/02 10:45:10;;;;;;;5.78;3.10;;;;;;;24.15;45.91;101630.22;5066213;28;20036;-65
2022/08/02 10:47:36;;;;;;;3.22;2.35;;;;;;;24.16;45.86;101626.56;5063098;28;20052;-64
2022/08/02 10:50:02;;;;;;;3.00;2.22;;;;;;;24.16;45.80;101637.19;5051683;28;20039;-65
2022/08/02 10:52:31;;;;;;;3.25;2.53;;;;;;;24.20;45.80;101618.00;5064807;28;20044;-65
2022/08/02 10:54:58;;;;;;;2.20;2.00;;;;;;;24.27;45.72;101615.41;5064303;28;20088;-65
2022/08/02 10:57:32;;;;;;;4.18;2.25;;;;;;;24.18;45.87;101612.03;5060570;28;20115;-65
2022/08/02 11:00:13;;;;;;;3.75;2.30;;;;;;;24.24;45.83;101605.97;5065953;28;20037;-65
2022/08/02 11:02:47;;;;;;;2.75;2.00;;;;;;;24.19;45.83;101618.19;5061415;28;20088;-65
2022/08/02 11:05:12;;;;;;;4.03;2.70;;;;;;;24.15;46.29;101612.44;5046735;28;20615;-65
2022/08/02 11:07:48;;;;;;;3.78;2.53;;;;;;;24.21;45.92;101614.31;5065682;28;20152;-65
2022/08/02 11:10:38;;;;;;;2.47;2.20;;;;;;;24.13;46.38;101605.66;5064379;28;20044;-65
2022/08/02 11:13:15;;;;;;;3.75;2.22;;;;;;;24.16;46.41;101600.78;5051338;28;20110;-65
2022/08/02 11:16:00;;;;;;;4.05;2.42;;;;;;;24.15;46.41;101592.97;5065147;28;20075;-65
2022/08/02 11:18:50;;;;;;;3.00;2.03;;;;;;;24.25;46.02;101601.47;5060133;28;20486;-65
2022/08/02 11:21:32;;;;;;;3.22;2.40;;;;;;;24.19;46.45;101604.88;5064318;28;20047;-65
2022/08/02 11:24:25;;;;;;;2.78;2.30;;;;;;;24.26;46.33;101600.47;5065198;28;20044;-65
2022/08/02 11:26:51;;;;;;;3.10;2.38;;;;;;;24.23;46.32;101614.13;5062879;28;20033;-64
2022/08/02 11:29:17;;;;;;;2.58;2.20;;;;;;;24.29;45.98;101610.75;5061177;28;20032;-65
2022/08/02 11:31:44;;;;;;;2.50;2.20;;;;;;;24.34;45.95;101614.50;5044996;28;20375;-65
2022/08/02 11:34:10;;;;;;;2.38;2.17;;;;;;;24.34;46.05;101609.16;5064981;28;20044;-64